createdAt,value
2019-05-06T00:01:17.252Z,99.90
2019-05-06T00:03:48.700Z,99.90
2019-05-06T00:06:17.274Z,99.90
2019-05-06T00:08:49.817Z,99.90
2019-05-06T00:11:18.345Z,99.90
2019-05-06T00:13:47.251Z,99.90
2019-05-06T00:16:15.780Z,99.90
2019-05-06T00:18:44.894Z,99.90
2019-05-06T00:21:14.781Z,99.90
2019-05-06T00:23:45.081Z,99.90
2019-05-06T00:29:01.742Z,99.90
2019-05-06T00:31:31.758Z,99.90
2019-05-06T00:34:00.516Z,99.90
2019-05-06T00:36:34.427Z,99.90
2019-05-06T00:39:06.010Z,99.90
2019-05-06T00:41:36.432Z,99.90
2019-05-06T00:44:08.159Z,99.90
2019-05-06T00:46:36.631Z,99.90
2019-05-06T00:49:05.197Z,99.90
2019-05-06T00:51:33.952Z,99.90
2019-05-06T00:54:22.065Z,99.90
2019-05-06T00:56:54.166Z,99.90
2019-05-06T00:59:23.886Z,99.90
2019-05-06T01:01:55.309Z,99.90
2019-05-06T01:04:28.522Z,99.90
2019-05-06T01:06:57.115Z,99.90
2019-05-06T01:09:28.657Z,99.90
2019-05-06T01:12:03.698Z,99.90
2019-05-06T01:14:35.177Z,99.90
2019-05-06T01:17:05.415Z,99.90
2019-05-06T01:19:34.273Z,99.90
2019-05-06T01:22:04.557Z,99.90
2019-05-06T01:24:34.480Z,99.90
2019-05-06T01:27:04.665Z,99.90
2019-05-06T01:29:34.763Z,99.90
2019-05-06T01:32:03.794Z,99.90
2019-05-06T01:34:38.293Z,99.90
2019-05-06T01:37:08.630Z,99.90
2019-05-06T01:39:48.113Z,99.90
2019-05-06T01:42:24.635Z,99.90
2019-05-06T01:44:54.960Z,99.90
2019-05-06T01:47:23.892Z,99.90
2019-05-06T01:49:53.837Z,99.90
2019-05-06T01:52:24.086Z,99.90
2019-05-06T01:54:56.579Z,99.90
2019-05-06T01:57:25.042Z,99.90
2019-05-06T01:59:55.039Z,99.90
2019-05-06T02:02:24.041Z,99.90
2019-05-06T02:04:55.622Z,99.90
2019-05-06T02:07:24.374Z,99.90
2019-05-06T02:09:55.618Z,99.90
2019-05-06T02:12:24.725Z,99.90
2019-05-06T02:14:56.480Z,99.90
2019-05-06T02:17:29.197Z,99.90
2019-05-06T02:19:57.660Z,99.90
2019-05-06T02:22:29.083Z,99.90
2019-05-06T02:24:59.988Z,99.90
2019-05-06T02:27:28.615Z,99.90
2019-05-06T02:29:58.934Z,99.90
2019-05-06T02:32:31.623Z,99.90
2019-05-06T02:35:26.024Z,99.90
2019-05-06T02:37:55.242Z,99.90
2019-05-06T02:40:27.976Z,99.90
2019-05-06T02:42:57.659Z,99.90
2019-05-06T02:45:27.323Z,99.90
2019-05-06T02:48:04.430Z,99.90
2019-05-06T02:50:42.659Z,99.90
2019-05-06T02:53:17.576Z,99.90
2019-05-06T02:55:47.045Z,99.90
2019-05-06T02:58:15.564Z,99.90
2019-05-06T03:00:47.777Z,99.90
2019-05-06T03:03:16.515Z,99.90
2019-05-06T03:05:49.397Z,99.90
2019-05-06T03:08:19.756Z,99.90
2019-05-06T03:10:48.354Z,99.90
2019-05-06T03:13:18.642Z,99.90
2019-05-06T03:15:47.185Z,99.90
2019-05-06T03:18:16.328Z,99.90
2019-05-06T03:20:57.651Z,99.90
2019-05-06T03:23:37.443Z,99.90
2019-05-06T03:26:08.753Z,99.90
2019-05-06T03:28:38.307Z,99.90
2019-05-06T03:31:08.252Z,99.90
2019-05-06T03:34:27.819Z,99.90
2019-05-06T03:36:34.482Z,99.90
2019-05-06T03:39:03.036Z,99.90
2019-05-06T03:41:33.615Z,99.90
2019-05-06T03:44:03.417Z,99.90
2019-05-06T03:46:53.851Z,99.90
2019-05-06T03:49:23.749Z,99.90
2019-05-06T03:51:56.003Z,99.90
2019-05-06T03:54:24.977Z,99.90
2019-05-06T03:56:55.086Z,99.90
2019-05-06T03:59:28.532Z,99.90
2019-05-06T04:01:58.024Z,99.90
2019-05-06T04:04:27.750Z,99.90
2019-05-06T04:06:59.056Z,99.90
2019-05-06T04:09:27.523Z,99.90
2019-05-06T04:11:59.918Z,99.90
2019-05-06T04:14:33.643Z,99.90
2019-05-06T04:17:12.848Z,99.90
2019-05-06T04:19:44.816Z,99.90
2019-05-06T04:22:23.392Z,99.90
2019-05-06T04:24:59.074Z,99.90
2019-05-06T04:27:37.270Z,99.90
2019-05-06T04:30:07.604Z,99.90
2019-05-06T04:32:37.046Z,99.90
2019-05-06T04:35:05.674Z,99.90
2019-05-06T04:37:34.337Z,99.90
2019-05-06T04:40:04.648Z,99.90
2019-05-06T04:42:34.786Z,99.90
2019-05-06T04:45:05.188Z,99.90
2019-05-06T04:47:33.783Z,99.90
2019-05-06T04:50:04.965Z,99.90
2019-05-06T04:52:34.287Z,99.90
2019-05-06T04:55:06.870Z,99.90
2019-05-06T04:57:35.402Z,99.90
2019-05-06T05:00:05.720Z,99.90
2019-05-06T05:02:38.561Z,99.90
2019-05-06T05:05:07.861Z,99.90
2019-05-06T05:07:37.991Z,99.90
2019-05-06T05:10:08.259Z,99.90
2019-05-06T05:12:55.020Z,99.90
2019-05-06T05:15:32.415Z,99.90
2019-05-06T05:18:16.094Z,99.90
2019-05-06T05:20:46.728Z,99.90
2019-05-06T05:23:19.442Z,99.90
2019-05-06T05:25:52.118Z,99.90
2019-05-06T05:28:19.710Z,99.90
2019-05-06T05:30:49.795Z,99.90
2019-05-06T05:33:22.470Z,99.90
2019-05-06T05:35:52.830Z,99.90
2019-05-06T05:38:24.535Z,99.90
2019-05-06T05:40:53.024Z,99.90
2019-05-06T05:43:42.429Z,99.90
2019-05-06T05:46:16.536Z,99.90
2019-05-06T05:48:52.596Z,99.90
2019-05-06T05:51:23.867Z,99.90
2019-05-06T05:53:52.992Z,99.90
2019-05-06T05:56:24.522Z,99.90
2019-05-06T05:59:00.037Z,99.90
2019-05-06T06:01:32.723Z,99.90
2019-05-06T06:04:03.106Z,99.90
2019-05-06T06:06:33.194Z,99.90
2019-05-06T06:09:03.103Z,99.90
2019-05-06T06:11:36.425Z,99.90
2019-05-06T06:14:07.830Z,99.90
2019-05-06T06:19:36.430Z,99.90
2019-05-06T06:22:07.140Z,99.90
2019-05-06T06:24:36.642Z,99.90
2019-05-06T06:27:06.570Z,99.90
2019-05-06T06:29:35.277Z,99.90
2019-05-06T06:32:15.130Z,99.90
2019-05-06T06:35:10.760Z,99.90
2019-05-06T06:37:36.100Z,99.90
2019-05-06T06:40:08.606Z,99.90
2019-05-06T06:42:37.460Z,99.90
2019-05-06T06:45:07.528Z,99.90
2019-05-06T06:47:36.227Z,99.90
2019-05-06T06:50:05.567Z,99.90
2019-05-06T06:52:35.256Z,99.90
2019-05-06T06:55:05.062Z,99.90
2019-05-06T06:57:38.218Z,99.90
2019-05-06T07:00:22.283Z,99.90
2019-05-06T07:03:02.741Z,99.90
2019-05-06T07:05:39.004Z,99.90
2019-05-06T07:08:07.457Z,99.90
2019-05-06T07:10:43.347Z,99.90
2019-05-06T07:13:14.034Z,99.90
2019-05-06T07:15:47.712Z,99.90
2019-05-06T07:18:14.435Z,99.90
2019-05-06T07:21:05.545Z,99.90
2019-05-06T07:23:35.959Z,99.90
2019-05-06T07:26:04.580Z,99.90
2019-05-06T07:28:35.927Z,99.90
2019-05-06T07:31:18.772Z,99.90
2019-05-06T07:33:37.562Z,99.90
2019-05-06T07:36:06.041Z,99.90
2019-05-06T07:38:34.788Z,99.90
2019-05-06T07:44:04.639Z,99.90
2019-05-06T07:49:28.598Z,99.90
2019-05-06T07:52:17.292Z,99.90
2019-05-06T07:54:48.306Z,99.90
2019-05-06T07:57:16.844Z,99.90
2019-05-06T07:59:45.305Z,99.90
2019-05-06T08:02:18.461Z,99.90
2019-05-06T08:04:47.147Z,99.90
2019-05-06T08:07:15.687Z,99.90
2019-05-06T08:09:44.260Z,99.90
2019-05-06T08:12:12.797Z,99.90
2019-05-06T08:14:42.915Z,99.90
2019-05-06T08:17:26.644Z,99.90
2019-05-06T08:19:55.347Z,99.90
2019-05-06T08:22:44.403Z,99.90
2019-05-06T08:25:14.593Z,99.90
2019-05-06T08:27:49.663Z,99.90
2019-05-06T08:30:18.629Z,99.90
2019-05-06T08:32:49.967Z,99.90
2019-05-06T08:35:19.405Z,99.90
2019-05-06T08:37:50.074Z,99.90
2019-05-06T08:40:18.767Z,99.90
2019-05-06T08:42:47.291Z,99.90
2019-05-06T08:45:16.323Z,99.90
2019-05-06T08:47:44.861Z,99.90
2019-05-06T08:50:32.479Z,99.90
2019-05-06T08:53:14.845Z,99.90
2019-05-06T08:55:45.698Z,99.90
2019-05-06T08:58:14.364Z,99.90
2019-05-06T09:00:54.468Z,99.90
2019-05-06T09:03:23.162Z,99.90
2019-05-06T09:05:53.299Z,99.90
2019-05-06T09:08:23.303Z,99.90
2019-05-06T09:10:52.329Z,99.60
2019-05-06T09:13:23.016Z,99.60
2019-05-06T09:15:52.740Z,99.20
2019-05-06T09:18:23.893Z,99.90
2019-05-06T09:20:55.824Z,99.90
2019-05-06T09:23:27.427Z,99.90
2019-05-06T09:25:54.648Z,99.90
2019-05-06T09:28:34.031Z,99.90
2019-05-06T09:31:04.379Z,99.90
2019-05-06T09:33:53.156Z,99.90
2019-05-06T09:36:22.901Z,99.90
2019-05-06T09:38:53.468Z,99.90
2019-05-06T09:41:23.072Z,99.90
2019-05-06T09:43:52.861Z,99.90
2019-05-06T09:46:24.888Z,99.90
2019-05-06T09:49:03.961Z,99.90
2019-05-06T09:51:32.568Z,99.90
2019-05-06T09:54:15.616Z,99.90
2019-05-06T09:58:57.635Z,99.90
2019-05-06T10:01:26.318Z,99.90
2019-05-06T10:03:59.185Z,99.90
2019-05-06T10:06:27.691Z,99.90
2019-05-06T10:08:56.152Z,99.90
2019-05-06T10:11:25.082Z,99.90
2019-05-06T10:13:53.680Z,99.90
2019-05-06T10:16:22.214Z,99.90
2019-05-06T10:18:53.785Z,99.90
2019-05-06T10:21:22.964Z,99.90
2019-05-06T10:23:52.980Z,99.90
2019-05-06T10:26:23.435Z,99.90
2019-05-06T10:28:56.324Z,99.90
2019-05-06T10:31:29.431Z,99.50
2019-05-06T10:34:14.656Z,99.90
2019-05-06T10:36:53.395Z,99.90
2019-05-06T10:39:25.956Z,98.40
2019-05-06T10:42:14.234Z,98.00
2019-05-06T10:45:09.255Z,97.40
2019-05-06T10:47:42.325Z,98.90
2019-05-06T10:50:12.575Z,98.80
2019-05-06T10:52:42.867Z,98.10
2019-05-06T10:55:12.290Z,99.20
2019-05-06T10:57:43.106Z,97.70
2019-05-06T11:00:13.083Z,98.10
2019-05-06T11:02:43.228Z,99.00
2019-05-06T11:05:13.394Z,97.20
2019-05-06T11:07:46.127Z,96.90
2019-05-06T11:10:24.006Z,97.20
2019-05-06T11:12:48.276Z,98.00
2019-05-06T11:15:17.100Z,97.40
2019-05-06T11:17:48.297Z,97.90
2019-05-06T11:20:37.624Z,99.00
2019-05-06T11:23:07.814Z,98.20
2019-05-06T11:25:37.898Z,98.50
2019-05-06T11:28:10.206Z,96.80
2019-05-06T11:30:42.505Z,98.70
2019-05-06T11:33:13.039Z,98.00
2019-05-06T11:38:33.100Z,97.30
2019-05-06T11:41:06.071Z,96.70
2019-05-06T11:43:36.141Z,97.20
2019-05-06T11:46:07.437Z,97.00
2019-05-06T11:48:36.011Z,98.10
2019-05-06T11:51:27.118Z,97.60
2019-05-06T11:53:56.295Z,97.40
2019-05-06T11:56:24.929Z,97.00
2019-05-06T11:58:55.147Z,96.90
2019-05-06T12:01:25.323Z,97.00
2019-05-06T12:03:55.751Z,97.60
2019-05-06T12:06:24.975Z,96.40
2019-05-06T12:08:53.442Z,96.80
2019-05-06T12:11:23.820Z,97.30
2019-05-06T12:13:53.380Z,97.10
2019-05-06T12:16:26.017Z,97.50
2019-05-06T12:18:52.922Z,98.30
2019-05-06T12:21:23.203Z,99.40
2019-05-06T12:23:53.869Z,99.80
2019-05-06T12:26:23.565Z,99.90
2019-05-06T12:28:53.148Z,99.90
2019-05-06T12:31:23.311Z,99.90
2019-05-06T12:33:53.258Z,99.90
2019-05-06T12:36:23.022Z,99.90
2019-05-06T12:39:14.889Z,99.90
2019-05-06T12:41:55.597Z,99.90
2019-05-06T12:44:24.330Z,99.90
2019-05-06T12:47:00.975Z,99.90
2019-05-06T12:49:32.566Z,99.90
2019-05-06T12:52:04.691Z,99.90
2019-05-06T12:54:33.654Z,99.90
2019-05-06T12:57:03.304Z,99.90
2019-05-06T12:59:32.615Z,99.90
2019-05-06T13:02:02.676Z,99.90
2019-05-06T13:04:49.728Z,99.90
2019-05-06T13:07:04.136Z,99.90
2019-05-06T13:09:33.141Z,99.90
2019-05-06T13:12:04.136Z,99.90
2019-05-06T13:14:35.348Z,99.90
2019-05-06T13:17:03.918Z,99.90
2019-05-06T13:19:33.638Z,99.90
2019-05-06T13:22:03.569Z,99.90
2019-05-06T13:24:33.844Z,99.90
2019-05-06T13:27:04.141Z,99.90
2019-05-06T13:29:35.836Z,99.90
2019-05-06T13:32:06.169Z,99.90
2019-05-06T13:34:34.932Z,99.90
2019-05-06T13:37:05.397Z,99.90
2019-05-06T13:39:35.673Z,99.90
2019-05-06T13:42:07.392Z,99.90
2019-05-06T13:44:36.428Z,99.90
2019-05-06T13:47:08.227Z,99.90
2019-05-06T13:49:42.914Z,99.90
2019-05-06T13:52:12.970Z,99.90
2019-05-06T13:54:42.296Z,99.90
2019-05-06T13:57:12.549Z,99.90
2019-05-06T13:59:44.287Z,99.90
2019-05-06T14:02:20.645Z,99.90
2019-05-06T14:04:49.352Z,99.90
2019-05-06T14:07:18.089Z,99.90
2019-05-06T14:09:48.495Z,99.90
2019-05-06T14:12:19.074Z,99.90
2019-05-06T14:14:52.462Z,99.90
2019-05-06T14:17:22.371Z,99.90
2019-05-06T14:19:53.342Z,99.90
2019-05-06T14:22:23.274Z,99.90
2019-05-06T14:24:57.210Z,99.90
2019-05-06T14:27:25.722Z,99.90
2019-05-06T14:29:57.304Z,99.90
2019-05-06T14:32:25.900Z,99.90
2019-05-06T14:34:54.451Z,99.90
2019-05-06T14:37:23.131Z,99.90
2019-05-06T14:40:11.906Z,99.90
2019-05-06T14:42:42.847Z,99.90
2019-05-06T14:45:12.544Z,99.90
2019-05-06T14:47:42.823Z,99.90
2019-05-06T14:50:15.885Z,99.90
2019-05-06T14:52:44.409Z,99.90
2019-05-06T14:55:23.486Z,99.90
2019-05-06T14:57:53.518Z,99.90
2019-05-06T15:00:24.591Z,99.90
2019-05-06T15:02:53.440Z,99.90
2019-05-06T15:05:25.456Z,99.90
2019-05-06T15:07:54.065Z,99.90
2019-05-06T15:10:26.289Z,99.90
2019-05-06T15:12:54.215Z,99.90
2019-05-06T15:15:22.990Z,99.90
2019-05-06T15:17:53.282Z,99.90
2019-05-06T15:20:23.239Z,99.90
2019-05-06T15:22:53.000Z,99.90
2019-05-06T15:25:22.194Z,99.90
2019-05-06T15:27:54.790Z,99.90
2019-05-06T15:30:35.287Z,99.90
2019-05-06T15:33:05.159Z,99.90
2019-05-06T15:35:52.570Z,99.90
2019-05-06T15:38:23.890Z,99.90
2019-05-06T15:40:52.693Z,99.90
2019-05-06T15:43:23.145Z,99.90
2019-05-06T15:45:52.877Z,99.90
2019-05-06T15:48:22.977Z,99.90
2019-05-06T15:50:55.165Z,99.90
2019-05-06T15:53:23.781Z,99.90
2019-05-06T15:55:53.594Z,99.90
2019-05-06T15:58:23.818Z,99.90
2019-05-06T16:00:55.393Z,99.90
2019-05-06T16:03:24.593Z,99.90
2019-05-06T16:05:55.385Z,99.90
2019-05-06T16:08:25.016Z,99.90
2019-05-06T16:10:58.284Z,99.90
2019-05-06T16:13:27.110Z,99.90
2019-05-06T16:15:59.094Z,99.90
2019-05-06T16:18:50.634Z,99.90
2019-05-06T16:21:22.855Z,99.90
2019-05-06T16:24:13.053Z,99.90
2019-05-06T16:26:45.574Z,99.90
2019-05-06T16:29:15.668Z,99.90
2019-05-06T16:31:44.471Z,99.90
2019-05-06T16:34:14.733Z,99.90
2019-05-06T16:36:46.207Z,99.90
2019-05-06T16:39:35.629Z,99.90
2019-05-06T16:42:05.854Z,99.90
2019-05-06T16:44:36.009Z,99.90
2019-05-06T16:47:06.655Z,99.90
2019-05-06T16:49:38.068Z,99.90
2019-05-06T16:52:12.990Z,99.90
2019-05-06T16:54:45.969Z,99.90
2019-05-06T17:00:27.788Z,99.90
2019-05-06T17:03:18.723Z,99.90
2019-05-06T17:06:05.375Z,99.90
2019-05-06T17:08:36.540Z,99.90
2019-05-06T17:11:04.888Z,99.90
2019-05-06T17:13:37.560Z,99.90
2019-05-06T17:16:04.680Z,99.90
2019-05-06T17:18:35.504Z,99.90
2019-05-06T17:21:04.403Z,99.90
2019-05-06T17:23:36.933Z,99.90
2019-05-06T17:26:07.467Z,99.90
2019-05-06T17:28:43.352Z,99.90
2019-05-06T17:31:24.312Z,99.90
2019-05-06T17:34:02.550Z,99.90
2019-05-06T17:36:41.985Z,99.90
2019-05-06T17:39:11.280Z,99.90
2019-05-06T17:41:46.115Z,99.90
2019-05-06T17:44:13.519Z,99.90
2019-05-06T17:47:02.887Z,99.90
2019-05-06T17:49:34.115Z,99.90
2019-05-06T17:52:10.490Z,99.90
2019-05-06T17:54:39.309Z,99.90
2019-05-06T17:57:07.942Z,99.90
2019-05-06T17:59:37.570Z,99.90
2019-05-06T18:02:10.735Z,99.90
2019-05-06T18:04:39.223Z,99.90
2019-05-06T18:07:08.779Z,99.90
2019-05-06T18:09:37.280Z,99.90
2019-05-06T18:12:05.767Z,99.90
2019-05-06T18:14:34.664Z,99.90
2019-05-06T18:17:04.877Z,99.90
2019-05-06T18:19:33.806Z,99.90
2019-05-06T18:22:13.118Z,99.90
2019-05-06T18:24:41.709Z,99.90
2019-05-06T18:27:14.555Z,99.90
2019-05-06T18:29:43.181Z,99.90
2019-05-06T18:32:12.899Z,99.90
2019-05-06T18:34:43.421Z,99.90
2019-05-06T18:37:12.680Z,99.90
2019-05-06T18:39:42.625Z,99.90
2019-05-06T18:42:19.572Z,99.90
2019-05-06T18:44:45.966Z,99.90
2019-05-06T18:47:15.390Z,99.90
2019-05-06T18:49:45.145Z,99.90
2019-05-06T18:52:13.613Z,99.90
2019-05-06T18:54:43.018Z,99.90
2019-05-06T18:57:14.673Z,99.90
2019-05-06T18:59:54.847Z,99.90
2019-05-06T19:02:23.487Z,99.90
2019-05-06T19:04:56.237Z,99.90
2019-05-06T19:07:26.435Z,99.90
2019-05-06T19:09:59.301Z,99.90
2019-05-06T19:12:36.774Z,99.90
2019-05-06T19:14:57.968Z,99.90
2019-05-06T19:17:26.578Z,99.90
2019-05-06T19:19:57.177Z,99.90
2019-05-06T19:22:27.230Z,99.90
2019-05-06T19:24:58.518Z,99.90
2019-05-06T19:27:29.913Z,99.90
2019-05-06T19:29:58.409Z,99.90
2019-05-06T19:32:26.866Z,99.90
2019-05-06T19:34:56.755Z,99.90
2019-05-06T19:37:25.247Z,99.90
2019-05-06T19:39:53.717Z,99.90
2019-05-06T19:42:22.550Z,99.90
2019-05-06T19:44:52.934Z,99.90
2019-05-06T19:47:21.495Z,99.90
2019-05-06T19:49:53.009Z,99.90
2019-05-06T19:52:21.226Z,99.90
2019-05-06T19:54:52.747Z,99.90
2019-05-06T19:57:22.526Z,99.90
2019-05-06T19:59:53.741Z,99.90
2019-05-06T20:02:25.709Z,99.90
2019-05-06T20:05:11.987Z,99.90
2019-05-06T20:07:57.521Z,99.90
2019-05-06T20:10:46.043Z,99.90
2019-05-06T20:13:20.569Z,99.90
2019-05-06T20:15:52.443Z,99.90
2019-05-06T20:18:22.022Z,99.90
2019-05-06T20:20:53.853Z,99.90
2019-05-06T20:23:23.196Z,99.90
2019-05-06T20:25:52.059Z,99.90
2019-05-06T20:28:22.744Z,99.90
2019-05-06T20:30:53.070Z,99.90
2019-05-06T20:33:24.574Z,99.90
2019-05-06T20:35:57.521Z,99.90
2019-05-06T20:38:33.611Z,99.90
2019-05-06T20:41:04.941Z,99.90
2019-05-06T20:43:33.594Z,99.90
2019-05-06T20:46:02.761Z,99.90
2019-05-06T20:48:34.938Z,99.90
2019-05-06T20:51:14.224Z,99.90
2019-05-06T20:53:43.263Z,99.90
2019-05-06T20:56:12.381Z,99.90
2019-05-06T20:58:43.850Z,99.90
2019-05-06T21:01:12.482Z,99.90
2019-05-06T21:03:43.604Z,99.90
2019-05-06T21:06:13.204Z,99.90
2019-05-06T21:08:43.056Z,99.90
2019-05-06T21:11:25.911Z,99.90
2019-05-06T21:13:44.978Z,99.90
2019-05-06T21:16:16.505Z,99.90
2019-05-06T21:18:45.191Z,99.90
2019-05-06T21:21:16.150Z,99.90
2019-05-06T21:23:49.052Z,99.90
2019-05-06T21:26:17.611Z,99.90
2019-05-06T21:28:46.966Z,99.90
2019-05-06T21:31:15.490Z,99.90
2019-05-06T21:33:49.310Z,99.90
2019-05-06T21:36:18.849Z,99.90
2019-05-06T21:38:48.933Z,99.90
2019-05-06T21:41:18.023Z,99.90
2019-05-06T21:43:50.301Z,99.90
2019-05-06T21:46:23.352Z,99.90
2019-05-06T21:48:54.855Z,99.90
2019-05-06T21:51:23.330Z,99.90
2019-05-06T21:53:56.473Z,99.90
2019-05-06T21:56:24.990Z,99.90
2019-05-06T21:58:53.527Z,99.90
2019-05-06T22:01:22.771Z,99.90
2019-05-06T22:03:52.588Z,99.90
2019-05-06T22:06:22.497Z,99.90
2019-05-06T22:08:52.449Z,99.90
2019-05-06T22:11:24.309Z,99.90
2019-05-06T22:14:01.250Z,99.90
2019-05-06T22:16:23.896Z,99.90
2019-05-06T22:18:53.557Z,99.90
2019-05-06T22:21:25.098Z,99.90
2019-05-06T22:23:58.153Z,99.90
2019-05-06T22:26:29.273Z,99.90
2019-05-06T22:28:58.275Z,99.90
2019-05-06T22:34:01.749Z,99.90
2019-05-06T22:36:33.285Z,99.90
2019-05-06T22:39:02.489Z,99.90
2019-05-06T22:41:34.157Z,99.90
2019-05-06T22:44:13.330Z,99.90
2019-05-06T22:46:33.067Z,99.90
2019-05-06T22:49:02.459Z,99.90
2019-05-06T22:51:34.440Z,99.90
2019-05-06T22:54:03.035Z,99.90
2019-05-06T22:56:32.474Z,99.90
2019-05-06T22:59:05.173Z,99.90
2019-05-06T23:01:56.125Z,99.90
2019-05-06T23:04:32.414Z,99.90
2019-05-06T23:07:04.462Z,99.90
2019-05-06T23:09:32.700Z,99.90
2019-05-06T23:12:04.821Z,99.90
2019-05-06T23:14:36.859Z,99.90
2019-05-06T23:17:06.189Z,99.90
2019-05-06T23:19:38.577Z,99.90
2019-05-06T23:22:08.401Z,99.90
2019-05-06T23:24:39.783Z,99.90
2019-05-06T23:27:09.370Z,99.90
2019-05-06T23:29:39.362Z,99.90
2019-05-06T23:32:09.028Z,99.90
2019-05-06T23:34:37.512Z,99.90
2019-05-06T23:37:09.048Z,99.90
2019-05-06T23:40:15.558Z,99.90
2019-05-06T23:43:22.253Z,99.90
2019-05-06T23:46:27.120Z,99.90
2019-05-06T23:49:32.693Z,99.90
2019-05-06T23:52:38.156Z,99.90
2019-05-06T23:55:44.164Z,99.90
2019-05-06T23:58:14.708Z,99.90
